createdAt,value
2023-01-09T00:00:22.895Z,7.03
2023-01-09T00:02:49.292Z,8.33
2023-01-09T00:05:16.820Z,6.30
2023-01-09T00:07:43.095Z,6.77
2023-01-09T00:10:09.946Z,6.53
2023-01-09T00:12:36.477Z,6.50
2023-01-09T00:15:03.121Z,7.30
2023-01-09T00:17:29.350Z,7.57
2023-01-09T00:19:55.640Z,6.63
2023-01-09T00:22:23.029Z,7.00
2023-01-09T00:24:49.300Z,7.13
2023-01-09T00:27:15.577Z,7.30
2023-01-09T00:29:42.103Z,7.30
2023-01-09T00:32:10.203Z,7.10
2023-01-09T00:34:37.582Z,7.80
2023-01-09T00:37:04.473Z,7.80
2023-01-09T00:39:30.722Z,8.27
2023-01-09T00:41:58.514Z,8.00
2023-01-09T00:44:26.057Z,7.47
2023-01-09T00:46:54.611Z,8.13
2023-01-09T00:49:21.442Z,8.10
2023-01-09T00:51:47.853Z,8.10
2023-01-09T00:54:15.643Z,8.13
2023-01-09T00:56:42.135Z,8.40
2023-01-09T00:59:08.466Z,8.10
2023-01-09T01:01:34.835Z,8.80
2023-01-09T01:04:21.132Z,9.07
2023-01-09T01:07:06.223Z,8.60
2023-01-09T01:09:32.457Z,8.20
2023-01-09T01:11:58.668Z,8.70
2023-01-09T01:14:24.893Z,9.47
2023-01-09T01:16:51.197Z,8.83
2023-01-09T01:19:17.447Z,9.67
2023-01-09T01:21:43.663Z,9.33
2023-01-09T01:24:10.057Z,9.23
2023-01-09T01:26:36.274Z,9.57
2023-01-09T01:29:02.501Z,9.47
2023-01-09T01:31:28.755Z,9.13
2023-01-09T01:33:54.997Z,9.67
2023-01-09T01:36:21.238Z,9.57
2023-01-09T01:38:47.480Z,9.60
2023-01-09T01:41:13.767Z,9.20
2023-01-09T01:43:50.654Z,9.03
2023-01-09T01:46:17.879Z,9.40
2023-01-09T01:48:44.433Z,10.17
2023-01-09T01:51:10.737Z,9.40
2023-01-09T01:53:41.967Z,9.53
2023-01-09T01:56:10.978Z,10.13
2023-01-09T01:58:43.545Z,10.37
2023-01-09T02:01:10.291Z,10.47
2023-01-09T02:03:37.831Z,10.53
2023-01-09T02:06:04.886Z,10.73
2023-01-09T02:08:31.553Z,10.70
2023-01-09T02:10:57.779Z,11.00
2023-01-09T02:13:24.803Z,10.90
2023-01-09T02:16:05.867Z,11.50
2023-01-09T02:18:35.280Z,11.30
2023-01-09T02:21:06.809Z,10.60
2023-01-09T02:23:42.661Z,11.40
2023-01-09T02:26:23.337Z,10.57
2023-01-09T02:29:13.077Z,10.47
2023-01-09T02:31:45.167Z,11.17
2023-01-09T02:34:17.069Z,11.90
2023-01-09T02:36:51.270Z,12.20
2023-01-09T02:39:33.141Z,11.27
2023-01-09T02:41:59.407Z,12.03
2023-01-09T02:44:29.889Z,12.07
2023-01-09T02:46:59.977Z,12.00
2023-01-09T02:49:26.575Z,12.50
2023-01-09T02:51:54.160Z,12.20
2023-01-09T02:54:26.595Z,12.80
2023-01-09T02:56:58.354Z,12.23
2023-01-09T02:59:27.152Z,13.20
2023-01-09T03:01:57.379Z,12.93
2023-01-09T03:04:42.481Z,12.83
2023-01-09T03:07:14.398Z,12.70
2023-01-09T03:09:42.356Z,11.77
2023-01-09T03:12:14.654Z,12.93
2023-01-09T03:14:43.063Z,12.47
2023-01-09T03:17:12.833Z,12.77
2023-01-09T03:19:40.746Z,12.43
2023-01-09T03:22:07.823Z,11.83
2023-01-09T03:24:39.604Z,12.90
2023-01-09T03:27:09.329Z,12.70
2023-01-09T03:29:35.768Z,12.07
2023-01-09T03:32:02.045Z,13.03
2023-01-09T03:34:28.271Z,12.47
2023-01-09T03:36:54.512Z,13.23
2023-01-09T03:39:20.733Z,13.53
2023-01-09T03:41:46.970Z,13.37
2023-01-09T03:44:13.173Z,12.77
2023-01-09T03:46:40.033Z,12.77
2023-01-09T03:49:06.257Z,13.43
2023-01-09T03:51:32.484Z,13.60
2023-01-09T03:53:58.744Z,12.93
2023-01-09T03:56:25.580Z,13.07
2023-01-09T03:58:53.206Z,13.70
2023-01-09T04:01:19.547Z,13.83
2023-01-09T04:03:45.831Z,13.97
2023-01-09T04:06:12.114Z,13.17
2023-01-09T04:08:39.317Z,13.57
2023-01-09T04:11:05.720Z,13.50
2023-01-09T04:13:31.933Z,14.10
2023-01-09T04:15:58.293Z,12.57
2023-01-09T04:18:24.509Z,13.80
2023-01-09T04:20:50.789Z,14.80
2023-01-09T04:23:17.033Z,13.27
2023-01-09T04:25:43.338Z,13.63
2023-01-09T04:28:09.710Z,13.43
2023-01-09T04:30:35.941Z,14.10
2023-01-09T04:33:02.162Z,13.80
2023-01-09T04:35:28.410Z,13.07
2023-01-09T04:37:54.720Z,14.80
2023-01-09T04:40:20.998Z,14.47
2023-01-09T04:42:48.243Z,13.43
2023-01-09T04:45:15.625Z,13.67
2023-01-09T04:47:41.842Z,14.13
2023-01-09T04:50:08.552Z,14.20
2023-01-09T04:52:34.812Z,14.50
2023-01-09T04:55:01.041Z,13.70
2023-01-09T04:57:27.301Z,14.53
2023-01-09T04:59:54.269Z,13.77
2023-01-09T05:02:20.642Z,14.00
2023-01-09T05:04:46.868Z,13.93
2023-01-09T05:07:13.151Z,13.17
2023-01-09T05:09:39.381Z,14.17
2023-01-09T05:12:05.890Z,13.17
2023-01-09T05:14:32.264Z,13.30
2023-01-09T05:16:58.498Z,14.60
2023-01-09T05:19:24.717Z,13.83
2023-01-09T05:21:50.943Z,14.03
2023-01-09T05:24:17.245Z,13.80
2023-01-09T05:26:43.494Z,13.87
2023-01-09T05:29:10.156Z,13.03
2023-01-09T05:31:36.508Z,13.40
2023-01-09T05:34:02.799Z,12.47
2023-01-09T05:36:29.671Z,12.67
2023-01-09T05:38:58.071Z,13.37
2023-01-09T05:41:26.099Z,12.87
2023-01-09T05:43:52.336Z,12.80
2023-01-09T05:46:18.594Z,12.60
2023-01-09T05:48:45.100Z,12.37
2023-01-09T05:51:11.811Z,13.13
2023-01-09T05:53:38.016Z,12.87
2023-01-09T05:56:04.289Z,13.63
2023-01-09T05:58:30.522Z,12.97
2023-01-09T06:00:58.075Z,12.23
2023-01-09T06:03:24.364Z,12.30
2023-01-09T06:05:51.712Z,12.77
2023-01-09T06:08:17.946Z,12.47
2023-01-09T06:10:45.395Z,13.23
2023-01-09T06:13:11.618Z,12.43
2023-01-09T06:15:37.883Z,13.50
2023-01-09T06:18:04.702Z,13.30
2023-01-09T06:20:31.248Z,13.27
2023-01-09T06:22:57.497Z,13.93
2023-01-09T06:25:24.147Z,12.80
2023-01-09T06:27:52.119Z,12.67
2023-01-09T06:30:19.135Z,14.47
2023-01-09T06:32:47.144Z,13.30
2023-01-09T06:35:13.386Z,14.30
2023-01-09T06:37:39.599Z,13.40
2023-01-09T06:40:06.154Z,12.37
2023-01-09T06:42:32.373Z,14.23
2023-01-09T06:44:58.651Z,13.43
2023-01-09T06:47:24.933Z,13.97
2023-01-09T06:49:51.157Z,12.90
2023-01-09T06:52:17.414Z,13.57
2023-01-09T06:54:43.708Z,13.70
2023-01-09T06:57:10.363Z,13.40
2023-01-09T06:59:37.000Z,14.90
2023-01-09T07:02:03.344Z,13.47
2023-01-09T07:04:29.673Z,13.33
2023-01-09T07:06:55.920Z,13.53
2023-01-09T07:09:22.157Z,14.07
2023-01-09T07:11:48.464Z,13.57
2023-01-09T07:14:14.783Z,14.77
2023-01-09T07:16:41.085Z,14.83
2023-01-09T07:19:07.309Z,13.63
2023-01-09T07:21:33.534Z,15.00
2023-01-09T07:23:59.933Z,14.53
2023-01-09T07:26:26.377Z,14.33
2023-01-09T07:28:52.613Z,15.00
2023-01-09T07:31:18.909Z,13.90
2023-01-09T07:33:45.170Z,13.93
2023-01-09T07:36:11.723Z,14.63
2023-01-09T07:38:37.997Z,14.90
2023-01-09T07:41:04.269Z,14.30
2023-01-09T07:43:30.505Z,14.17
2023-01-09T07:45:56.775Z,13.90
2023-01-09T07:48:23.057Z,14.60
2023-01-09T07:50:49.276Z,13.90
2023-01-09T07:53:15.607Z,14.20
2023-01-09T07:55:44.964Z,14.27
2023-01-09T07:58:11.214Z,13.83
2023-01-09T08:00:37.464Z,13.97
2023-01-09T08:03:04.024Z,14.53
2023-01-09T08:05:30.318Z,13.33
2023-01-09T08:07:56.534Z,12.93
2023-01-09T08:10:22.772Z,13.20
2023-01-09T08:12:49.455Z,12.73
2023-01-09T08:15:16.271Z,13.17
2023-01-09T08:17:43.179Z,13.33
2023-01-09T08:20:11.203Z,13.20
2023-01-09T08:22:44.277Z,13.07
2023-01-09T08:25:12.423Z,13.13
2023-01-09T08:27:39.109Z,12.73
2023-01-09T08:30:05.610Z,13.27
2023-01-09T08:32:32.534Z,12.70
2023-01-09T08:34:58.879Z,13.80
2023-01-09T08:37:25.124Z,12.93
2023-01-09T08:39:51.361Z,13.00
2023-01-09T08:42:36.536Z,12.97
2023-01-09T08:45:21.198Z,13.33
2023-01-09T08:47:48.448Z,13.27
2023-01-09T08:50:15.071Z,13.53
2023-01-09T08:52:41.470Z,13.40
2023-01-09T08:55:07.905Z,12.90
2023-01-09T08:57:34.159Z,12.87
2023-01-09T09:00:00.424Z,13.10
2023-01-09T09:02:26.729Z,13.67
2023-01-09T09:04:53.604Z,12.30
2023-01-09T09:07:26.660Z,12.97
2023-01-09T09:09:53.684Z,13.37
2023-01-09T09:12:20.076Z,13.23
2023-01-09T09:15:04.801Z,12.67
2023-01-09T09:17:32.706Z,12.73
2023-01-09T09:19:59.387Z,13.00
2023-01-09T09:22:25.918Z,13.97
2023-01-09T09:24:52.335Z,12.83
2023-01-09T09:27:18.821Z,13.37
2023-01-09T09:29:45.419Z,12.73
2023-01-09T09:32:11.668Z,12.33
2023-01-09T09:34:38.141Z,12.00
2023-01-09T09:37:04.503Z,13.37
2023-01-09T09:39:30.793Z,13.03
2023-01-09T09:42:24.038Z,12.43
2023-01-09T09:45:08.683Z,11.83
2023-01-09T09:47:47.720Z,12.70
2023-01-09T09:50:21.555Z,11.50
2023-01-09T09:53:10.108Z,12.33
2023-01-09T09:55:38.580Z,11.63
2023-01-09T09:58:11.484Z,12.73
2023-01-09T10:00:38.072Z,11.70
2023-01-09T10:03:11.668Z,10.43
2023-01-09T10:05:40.709Z,10.80
2023-01-09T10:08:24.120Z,10.03
2023-01-09T10:10:52.997Z,9.90
2023-01-09T10:13:38.775Z,9.83
2023-01-09T10:16:05.111Z,9.10
2023-01-09T10:18:49.987Z,9.20
2023-01-09T10:21:27.016Z,8.87
2023-01-09T10:23:59.400Z,8.93
2023-01-09T10:26:43.457Z,8.97
2023-01-09T10:29:17.915Z,8.53
2023-01-09T10:31:53.236Z,8.53
2023-01-09T10:34:28.543Z,8.20
2023-01-09T10:37:21.245Z,8.47
2023-01-09T10:39:56.681Z,7.87
2023-01-09T10:42:31.844Z,7.80
2023-01-09T10:45:17.485Z,8.10
2023-01-09T10:47:44.971Z,7.63
2023-01-09T10:50:17.912Z,7.57
2023-01-09T10:52:44.633Z,7.90
2023-01-09T10:55:19.378Z,7.63
2023-01-09T10:57:47.449Z,7.47
2023-01-09T11:00:15.440Z,7.13
2023-01-09T11:02:41.857Z,7.00
2023-01-09T11:05:12.103Z,5.90
2023-01-09T11:07:39.660Z,6.23
2023-01-09T11:10:15.612Z,6.23
2023-01-09T11:12:42.052Z,6.27
2023-01-09T11:15:19.398Z,5.93
2023-01-09T11:17:46.596Z,5.37
2023-01-09T11:20:15.775Z,5.50
2023-01-09T11:22:47.469Z,5.27
2023-01-09T11:25:14.994Z,5.23
2023-01-09T11:27:41.241Z,5.30
2023-01-09T11:30:22.407Z,4.90
2023-01-09T11:32:48.904Z,5.30
2023-01-09T11:35:17.679Z,4.50
2023-01-09T11:37:44.533Z,4.57
2023-01-09T11:40:18.290Z,4.37
2023-01-09T11:43:01.295Z,4.40
2023-01-09T11:45:30.055Z,4.40
2023-01-09T11:47:56.304Z,4.07
2023-01-09T11:50:26.397Z,3.93
2023-01-09T11:53:07.946Z,4.10
2023-01-09T11:55:41.877Z,3.63
2023-01-09T11:58:16.725Z,3.70
2023-01-09T12:00:54.189Z,3.97
2023-01-09T12:03:45.910Z,3.30
2023-01-09T12:06:24.824Z,2.87
2023-01-09T12:08:55.770Z,3.40
2023-01-09T12:11:27.051Z,3.20
2023-01-09T12:14:12.149Z,2.87
2023-01-09T12:16:47.559Z,3.00
2023-01-09T12:19:37.726Z,2.73
2023-01-09T12:22:20.582Z,2.47
2023-01-09T12:24:56.311Z,3.03
2023-01-09T12:27:31.141Z,2.70
2023-01-09T12:30:04.887Z,2.63
2023-01-09T12:32:37.927Z,3.00
2023-01-09T12:35:11.554Z,2.77
2023-01-09T12:37:56.551Z,2.63
2023-01-09T12:40:43.074Z,2.93
2023-01-09T12:43:16.362Z,2.50
2023-01-09T12:45:59.059Z,3.10
2023-01-09T12:48:47.953Z,3.00
2023-01-09T12:51:33.036Z,3.53
2023-01-09T12:54:22.385Z,2.70
2023-01-09T12:56:51.041Z,3.00
2023-01-09T12:59:32.296Z,2.80
2023-01-09T13:02:18.921Z,2.97
2023-01-09T13:04:53.129Z,3.20
2023-01-09T13:07:23.043Z,2.70
2023-01-09T13:09:55.800Z,2.77
2023-01-09T13:12:23.270Z,2.80
2023-01-09T13:14:52.440Z,2.50
2023-01-09T13:17:21.600Z,2.40
2023-01-09T13:19:48.269Z,2.50
2023-01-09T13:22:15.599Z,2.23
2023-01-09T13:24:47.645Z,2.50
2023-01-09T13:27:17.469Z,2.20
2023-01-09T13:29:45.587Z,2.13
2023-01-09T13:32:20.349Z,3.20
2023-01-09T13:34:47.666Z,2.43
2023-01-09T13:37:22.495Z,2.40
2023-01-09T13:39:55.447Z,2.00
2023-01-09T13:42:38.995Z,2.13
2023-01-09T13:45:20.137Z,2.30
2023-01-09T13:47:46.429Z,2.30
2023-01-09T13:50:24.178Z,2.07
2023-01-09T13:52:50.443Z,1.90
2023-01-09T13:55:16.856Z,1.97
2023-01-09T13:57:44.508Z,2.33
2023-01-09T14:00:17.033Z,2.00
2023-01-09T14:02:46.825Z,1.90
2023-01-09T14:05:16.892Z,1.73
2023-01-09T14:07:45.321Z,1.97
2023-01-09T14:10:20.419Z,1.80
2023-01-09T14:12:47.014Z,1.97
2023-01-09T14:15:26.851Z,2.03
2023-01-09T14:18:00.986Z,2.00
2023-01-09T14:20:30.545Z,2.20
2023-01-09T14:23:18.154Z,2.07
2023-01-09T14:25:44.194Z,1.87
2023-01-09T14:28:20.691Z,1.83
2023-01-09T14:30:53.007Z,2.20
2023-01-09T14:33:19.325Z,1.90
2023-01-09T14:35:54.687Z,1.80
2023-01-09T14:38:39.814Z,1.70
2023-01-09T14:41:06.033Z,1.90
2023-01-09T14:43:41.386Z,1.63
2023-01-09T14:46:15.983Z,1.80
2023-01-09T14:49:00.514Z,2.00
2023-01-09T14:51:27.852Z,2.20
2023-01-09T14:53:55.476Z,2.00
2023-01-09T14:56:28.917Z,1.77
2023-01-09T14:59:05.047Z,1.70
2023-01-09T15:01:32.599Z,1.60
2023-01-09T15:04:01.097Z,1.50
2023-01-09T15:06:35.489Z,1.43
2023-01-09T15:09:07.264Z,1.90
2023-01-09T15:11:34.670Z,2.10
2023-01-09T15:14:04.406Z,1.87
2023-01-09T15:16:31.398Z,2.47
2023-01-09T15:19:00.495Z,2.10
2023-01-09T15:21:30.844Z,2.30
2023-01-09T15:24:13.266Z,1.97
2023-01-09T15:26:40.105Z,2.37
2023-01-09T15:29:15.403Z,2.20
2023-01-09T15:31:43.222Z,2.67
2023-01-09T15:34:13.943Z,2.00
2023-01-09T15:36:40.244Z,2.33
2023-01-09T15:39:06.586Z,2.30
2023-01-09T15:41:51.891Z,2.33
2023-01-09T15:44:27.919Z,2.00
2023-01-09T15:46:57.989Z,2.27
2023-01-09T15:49:24.743Z,1.90
2023-01-09T15:51:51.180Z,2.30
2023-01-09T15:54:27.157Z,2.20
2023-01-09T15:56:54.614Z,2.10
2023-01-09T15:59:26.965Z,2.47
2023-01-09T16:02:19.462Z,2.40
2023-01-09T16:04:46.754Z,2.13
2023-01-09T16:07:15.281Z,2.57
2023-01-09T16:09:43.855Z,2.57
2023-01-09T16:12:21.630Z,2.30
2023-01-09T16:14:52.555Z,2.20
2023-01-09T16:17:20.553Z,2.40
2023-01-09T16:19:48.562Z,2.87
2023-01-09T16:22:17.564Z,2.73
2023-01-09T16:24:43.925Z,2.23
2023-01-09T16:27:20.612Z,2.10
2023-01-09T16:29:51.042Z,2.50
2023-01-09T16:32:18.802Z,2.13
2023-01-09T16:34:47.142Z,2.07
2023-01-09T16:37:13.827Z,1.67
2023-01-09T16:39:40.074Z,2.03
2023-01-09T16:42:28.414Z,2.10
2023-01-09T16:44:54.635Z,1.60
2023-01-09T16:47:23.009Z,2.10
2023-01-09T16:49:49.261Z,2.00
2023-01-09T16:52:16.372Z,2.27
2023-01-09T16:54:44.003Z,2.60
2023-01-09T16:57:12.808Z,1.97
2023-01-09T16:59:39.065Z,2.07
2023-01-09T17:02:10.391Z,2.07
2023-01-09T17:04:36.695Z,2.30
2023-01-09T17:07:02.991Z,2.10
2023-01-09T17:09:29.195Z,2.50
2023-01-09T17:11:55.427Z,2.00
2023-01-09T17:14:21.706Z,2.10
2023-01-09T17:16:48.047Z,1.93
2023-01-09T17:19:18.844Z,2.00
2023-01-09T17:21:45.188Z,1.70
2023-01-09T17:24:30.084Z,2.20
2023-01-09T17:27:15.001Z,1.67
2023-01-09T17:29:41.279Z,1.80
2023-01-09T17:32:09.151Z,1.67
2023-01-09T17:34:35.540Z,1.67
2023-01-09T17:37:04.300Z,1.37
2023-01-09T17:39:30.792Z,1.60
2023-01-09T17:41:58.909Z,1.60
2023-01-09T17:44:25.137Z,1.80
2023-01-09T17:46:51.463Z,1.50
2023-01-09T17:49:19.198Z,1.83
2023-01-09T17:51:45.551Z,1.43
2023-01-09T17:54:12.028Z,1.90
2023-01-09T17:56:39.942Z,1.60
2023-01-09T17:59:10.205Z,1.60
2023-01-09T18:01:36.625Z,1.47
2023-01-09T18:04:02.943Z,1.30
2023-01-09T18:06:29.358Z,1.63
2023-01-09T18:08:58.038Z,1.67
2023-01-09T18:11:24.458Z,1.73
2023-01-09T18:13:51.401Z,1.90
2023-01-09T18:16:19.103Z,1.50
2023-01-09T18:18:45.385Z,1.40
2023-01-09T18:21:14.256Z,1.63
2023-01-09T18:23:40.604Z,1.40
2023-01-09T18:26:07.567Z,1.60
2023-01-09T18:28:37.293Z,1.80
2023-01-09T18:31:03.834Z,1.43
2023-01-09T18:33:30.056Z,1.60
2023-01-09T18:35:56.396Z,1.50
2023-01-09T18:38:22.645Z,1.50
2023-01-09T18:40:49.687Z,1.70
2023-01-09T18:43:16.404Z,1.70
2023-01-09T18:45:42.738Z,1.53
2023-01-09T18:48:09.877Z,1.60
2023-01-09T18:50:36.117Z,1.93
2023-01-09T18:53:02.448Z,1.70
2023-01-09T18:55:28.741Z,3.23
2023-01-09T18:57:55.395Z,1.90
2023-01-09T19:00:21.673Z,1.90
2023-01-09T19:02:47.951Z,2.20
2023-01-09T19:05:15.443Z,2.03
2023-01-09T19:07:41.668Z,2.03
2023-01-09T19:10:08.371Z,2.07
2023-01-09T19:12:34.654Z,2.00
2023-01-09T19:15:00.946Z,1.60
2023-01-09T19:17:27.223Z,1.70
2023-01-09T19:19:53.497Z,1.67
2023-01-09T19:22:19.800Z,1.80
2023-01-09T19:24:46.157Z,1.60
2023-01-09T19:27:12.411Z,2.13
2023-01-09T19:29:38.623Z,1.63
2023-01-09T19:32:08.375Z,1.70
2023-01-09T19:34:35.040Z,1.63
2023-01-09T19:37:01.376Z,1.70
2023-01-09T19:39:27.637Z,1.70
2023-01-09T19:41:53.909Z,1.80
2023-01-09T19:44:21.007Z,1.73
2023-01-09T19:46:47.225Z,1.70
2023-01-09T19:49:13.457Z,1.67
2023-01-09T19:51:40.263Z,1.60
2023-01-09T19:56:33.944Z,1.77
2023-01-09T19:59:01.934Z,2.00
2023-01-09T20:01:29.855Z,1.60
2023-01-09T20:03:56.697Z,1.90
2023-01-09T20:06:24.766Z,1.67
2023-01-09T20:08:53.792Z,1.50
2023-01-09T20:11:20.543Z,1.60
2023-01-09T20:13:46.809Z,2.07
2023-01-09T20:16:14.398Z,1.50
2023-01-09T20:18:40.861Z,1.70
2023-01-09T20:21:07.161Z,1.60
2023-01-09T20:23:34.160Z,1.60
2023-01-09T20:26:01.026Z,1.50
2023-01-09T20:28:27.682Z,1.53
2023-01-09T20:30:53.908Z,1.70
2023-01-09T20:33:20.947Z,2.20
2023-01-09T20:35:47.639Z,1.70
2023-01-09T20:38:14.175Z,1.87
2023-01-09T20:40:43.815Z,1.90
2023-01-09T20:43:10.541Z,2.00
2023-01-09T20:45:36.819Z,2.00
2023-01-09T20:48:03.181Z,1.90
2023-01-09T20:50:31.157Z,2.03
2023-01-09T20:52:57.525Z,2.00
2023-01-09T20:55:23.765Z,1.97
2023-01-09T20:57:50.021Z,1.77
2023-01-09T21:00:16.550Z,1.90
2023-01-09T21:02:42.788Z,1.80
2023-01-09T21:05:09.127Z,1.90
2023-01-09T21:07:35.358Z,1.80
2023-01-09T21:10:01.667Z,2.20
2023-01-09T21:12:34.503Z,1.90
2023-01-09T21:15:03.807Z,2.00
2023-01-09T21:17:33.833Z,2.20
2023-01-09T21:20:00.168Z,1.87
2023-01-09T21:22:26.484Z,1.77
2023-01-09T21:24:52.779Z,1.90
2023-01-09T21:27:19.414Z,2.07
2023-01-09T21:29:45.684Z,1.70
2023-01-09T21:32:12.000Z,1.87
2023-01-09T21:34:38.262Z,2.10
2023-01-09T21:37:04.542Z,1.80
2023-01-09T21:39:30.909Z,2.20
2023-01-09T21:42:15.798Z,2.30
2023-01-09T21:45:00.585Z,2.37
2023-01-09T21:47:26.824Z,1.90
2023-01-09T21:49:53.056Z,2.20
2023-01-09T21:52:19.366Z,1.83
2023-01-09T21:54:45.656Z,2.00
2023-01-09T21:57:12.931Z,1.93
2023-01-09T21:59:39.187Z,1.70
2023-01-09T22:02:05.429Z,1.90
2023-01-09T22:04:34.229Z,2.00
2023-01-09T22:07:00.501Z,2.30
2023-01-09T22:09:26.802Z,1.90
2023-01-09T22:11:53.099Z,1.73
2023-01-09T22:14:19.407Z,1.90
2023-01-09T22:16:46.014Z,1.93
2023-01-09T22:19:12.827Z,1.70
2023-01-09T22:21:39.275Z,1.90
2023-01-09T22:24:06.404Z,1.90
2023-01-09T22:26:33.477Z,1.37
2023-01-09T22:28:59.781Z,1.90
2023-01-09T22:31:28.437Z,1.50
2023-01-09T22:33:57.517Z,1.73
2023-01-09T22:36:24.429Z,1.80
2023-01-09T22:38:53.157Z,1.50
2023-01-09T22:41:19.413Z,1.87
2023-01-09T22:43:45.636Z,1.80
2023-01-09T22:46:12.061Z,1.77
2023-01-09T22:48:39.065Z,1.73
2023-01-09T22:51:06.878Z,1.80
2023-01-09T22:53:33.650Z,1.80
2023-01-09T22:56:01.016Z,2.17
2023-01-09T22:58:27.779Z,1.97
2023-01-09T23:00:54.073Z,1.80
2023-01-09T23:03:20.539Z,1.67
2023-01-09T23:05:47.958Z,1.70
2023-01-09T23:08:14.467Z,1.73
2023-01-09T23:10:40.777Z,2.53
2023-01-09T23:13:07.038Z,2.27
2023-01-09T23:15:33.301Z,1.70
2023-01-09T23:17:59.548Z,1.80
2023-01-09T23:20:25.801Z,1.90
2023-01-09T23:22:54.668Z,1.80
2023-01-09T23:25:20.946Z,1.90
2023-01-09T23:27:47.162Z,1.80
2023-01-09T23:30:13.604Z,1.70
2023-01-09T23:32:39.839Z,1.97
2023-01-09T23:35:06.168Z,2.23
2023-01-09T23:37:32.381Z,1.87
2023-01-09T23:39:58.605Z,2.13
2023-01-09T23:42:43.641Z,2.10
2023-01-09T23:45:10.114Z,2.50
2023-01-09T23:47:36.601Z,1.97
2023-01-09T23:50:03.849Z,1.90
2023-01-09T23:52:30.091Z,1.90
2023-01-09T23:54:56.836Z,2.10
2023-01-09T23:57:23.104Z,2.10
2023-01-09T23:59:49.690Z,2.40
